sensor_id;sensor_type;location;lat;lon;timestamp;P1;durP1;ratioP1;P2;durP2;ratioP2
26540;SDS011;14206;50.202;10.948;2022-12-29T00:02:00;3.28;;;2.58;;
26540;SDS011;14206;50.202;10.948;2022-12-29T00:04:27;3.42;;;2.78;;
26540;SDS011;14206;50.202;10.948;2022-12-29T00:06:54;3.78;;;2.55;;
26540;SDS011;14206;50.202;10.948;2022-12-29T00:09:21;2.75;;;2.30;;
26540;SDS011;14206;50.202;10.948;2022-12-29T00:11:48;4.57;;;2.55;;
26540;SDS011;14206;50.202;10.948;2022-12-29T00:14:16;4.40;;;2.60;;
26540;SDS011;14206;50.202;10.948;2022-12-29T00:17:02;3.25;;;2.58;;
26540;SDS011;14206;50.202;10.948;2022-12-29T00:19:29;4.95;;;3.00;;
26540;SDS011;14206;50.202;10.948;2022-12-29T00:22:14;4.30;;;3.03;;
26540;SDS011;14206;50.202;10.948;2022-12-29T00:25:14;3.53;;;2.40;;
26540;SDS011;14206;50.202;10.948;2022-12-29T00:27:59;4.80;;;2.60;;
26540;SDS011;14206;50.202;10.948;2022-12-29T00:30:45;3.28;;;2.38;;
26540;SDS011;14206;50.202;10.948;2022-12-29T00:33:31;3.63;;;2.40;;
26540;SDS011;14206;50.202;10.948;2022-12-29T00:36:34;4.22;;;2.83;;
26540;SDS011;14206;50.202;10.948;2022-12-29T00:39:12;4.13;;;2.58;;
26540;SDS011;14206;50.202;10.948;2022-12-29T00:42:06;2.67;;;2.08;;
26540;SDS011;14206;50.202;10.948;2022-12-29T00:45:07;3.05;;;2.40;;
26540;SDS011;14206;50.202;10.948;2022-12-29T00:47:34;2.65;;;2.20;;
26540;SDS011;14206;50.202;10.948;2022-12-29T00:50:00;3.92;;;2.55;;
26540;SDS011;14206;50.202;10.948;2022-12-29T00:52:27;3.25;;;2.35;;
26540;SDS011;14206;50.202;10.948;2022-12-29T00:54:54;5.03;;;2.42;;
26540;SDS011;14206;50.202;10.948;2022-12-29T00:57:21;2.63;;;2.40;;
26540;SDS011;14206;50.202;10.948;2022-12-29T00:59:47;3.28;;;2.22;;
26540;SDS011;14206;50.202;10.948;2022-12-29T01:02:14;4.25;;;2.22;;
26540;SDS011;14206;50.202;10.948;2022-12-29T01:04:42;3.40;;;2.28;;
26540;SDS011;14206;50.202;10.948;2022-12-29T01:07:08;3.95;;;2.80;;
26540;SDS011;14206;50.202;10.948;2022-12-29T01:09:36;3.90;;;2.30;;
26540;SDS011;14206;50.202;10.948;2022-12-29T01:12:21;3.05;;;2.40;;
26540;SDS011;14206;50.202;10.948;2022-12-29T01:15:08;2.53;;;2.10;;
26540;SDS011;14206;50.202;10.948;2022-12-29T01:17:37;3.90;;;2.05;;
26540;SDS011;14206;50.202;10.948;2022-12-29T01:20:04;2.60;;;2.15;;
26540;SDS011;14206;50.202;10.948;2022-12-29T01:22:31;2.10;;;1.88;;
26540;SDS011;14206;50.202;10.948;2022-12-29T01:24:59;4.95;;;2.35;;
26540;SDS011;14206;50.202;10.948;2022-12-29T01:27:25;3.42;;;2.30;;
26540;SDS011;14206;50.202;10.948;2022-12-29T01:29:52;3.20;;;1.90;;
26540;SDS011;14206;50.202;10.948;2022-12-29T01:32:19;2.78;;;2.28;;
26540;SDS011;14206;50.202;10.948;2022-12-29T01:34:46;2.28;;;2.00;;
26540;SDS011;14206;50.202;10.948;2022-12-29T01:37:13;2.60;;;1.83;;
26540;SDS011;14206;50.202;10.948;2022-12-29T01:39:40;3.28;;;2.30;;
26540;SDS011;14206;50.202;10.948;2022-12-29T01:42:11;2.17;;;1.85;;
26540;SDS011;14206;50.202;10.948;2022-12-29T01:44:54;2.47;;;1.88;;
26540;SDS011;14206;50.202;10.948;2022-12-29T01:49:56;2.55;;;2.20;;
26540;SDS011;14206;50.202;10.948;2022-12-29T01:52:28;3.65;;;2.10;;
26540;SDS011;14206;50.202;10.948;2022-12-29T01:55:00;1.98;;;1.70;;
26540;SDS011;14206;50.202;10.948;2022-12-29T01:57:31;2.03;;;1.70;;
26540;SDS011;14206;50.202;10.948;2022-12-29T02:00:08;3.10;;;2.00;;
26540;SDS011;14206;50.202;10.948;2022-12-29T02:02:40;2.47;;;1.70;;
26540;SDS011;14206;50.202;10.948;2022-12-29T02:05:16;2.22;;;1.98;;
26540;SDS011;14206;50.202;10.948;2022-12-29T02:07:58;2.33;;;2.00;;
26540;SDS011;14206;50.202;10.948;2022-12-29T02:10:27;3.88;;;2.08;;
26540;SDS011;14206;50.202;10.948;2022-12-29T02:12:56;2.30;;;1.80;;
26540;SDS011;14206;50.202;10.948;2022-12-29T02:15:32;2.55;;;1.90;;
26540;SDS011;14206;50.202;10.948;2022-12-29T02:21:02;2.17;;;1.73;;
26540;SDS011;14206;50.202;10.948;2022-12-29T02:26:46;2.47;;;1.90;;
26540;SDS011;14206;50.202;10.948;2022-12-29T02:32:30;2.50;;;1.92;;
26540;SDS011;14206;50.202;10.948;2022-12-29T02:41:06;2.55;;;1.85;;
26540;SDS011;14206;50.202;10.948;2022-12-29T02:46:21;2.47;;;1.98;;
26540;SDS011;14206;50.202;10.948;2022-12-29T02:49:12;2.90;;;1.85;;
26540;SDS011;14206;50.202;10.948;2022-12-29T02:51:51;2.45;;;1.80;;
26540;SDS011;14206;50.202;10.948;2022-12-29T02:54:19;2.25;;;1.60;;
26540;SDS011;14206;50.202;10.948;2022-12-29T02:59:43;2.90;;;1.70;;
26540;SDS011;14206;50.202;10.948;2022-12-29T03:02:35;2.13;;;1.70;;
26540;SDS011;14206;50.202;10.948;2022-12-29T03:11:05;2.55;;;2.00;;
26540;SDS011;14206;50.202;10.948;2022-12-29T03:13:57;2.75;;;1.80;;
26540;SDS011;14206;50.202;10.948;2022-12-29T03:17:04;3.97;;;1.90;;
26540;SDS011;14206;50.202;10.948;2022-12-29T03:19:37;2.45;;;1.60;;
26540;SDS011;14206;50.202;10.948;2022-12-29T03:22:21;2.60;;;2.00;;
26540;SDS011;14206;50.202;10.948;2022-12-29T03:27:58;1.95;;;1.63;;
26540;SDS011;14206;50.202;10.948;2022-12-29T03:30:32;2.25;;;1.58;;
26540;SDS011;14206;50.202;10.948;2022-12-29T03:33:02;3.08;;;2.05;;
26540;SDS011;14206;50.202;10.948;2022-12-29T03:35:37;3.53;;;1.80;;
26540;SDS011;14206;50.202;10.948;2022-12-29T03:38:17;2.80;;;1.83;;
26540;SDS011;14206;50.202;10.948;2022-12-29T03:40:49;3.70;;;1.60;;
26540;SDS011;14206;50.202;10.948;2022-12-29T03:43:24;2.35;;;1.80;;
26540;SDS011;14206;50.202;10.948;2022-12-29T03:45:53;4.07;;;1.52;;
26540;SDS011;14206;50.202;10.948;2022-12-29T03:48:21;2.47;;;1.80;;
26540;SDS011;14206;50.202;10.948;2022-12-29T03:50:49;2.58;;;1.60;;
26540;SDS011;14206;50.202;10.948;2022-12-29T03:53:16;2.38;;;1.73;;
26540;SDS011;14206;50.202;10.948;2022-12-29T03:55:44;2.47;;;1.63;;
26540;SDS011;14206;50.202;10.948;2022-12-29T03:58:10;2.88;;;1.60;;
26540;SDS011;14206;50.202;10.948;2022-12-29T04:00:54;2.70;;;2.00;;
26540;SDS011;14206;50.202;10.948;2022-12-29T04:03:21;2.40;;;1.55;;
26540;SDS011;14206;50.202;10.948;2022-12-29T04:05:49;2.78;;;1.52;;
26540;SDS011;14206;50.202;10.948;2022-12-29T04:08:16;3.75;;;1.67;;
26540;SDS011;14206;50.202;10.948;2022-12-29T04:10:43;3.00;;;1.55;;
26540;SDS011;14206;50.202;10.948;2022-12-29T04:13:12;1.85;;;1.40;;
26540;SDS011;14206;50.202;10.948;2022-12-29T04:15:39;2.20;;;1.60;;
26540;SDS011;14206;50.202;10.948;2022-12-29T04:18:07;2.10;;;1.60;;
26540;SDS011;14206;50.202;10.948;2022-12-29T04:20:35;2.63;;;1.60;;
26540;SDS011;14206;50.202;10.948;2022-12-29T04:23:20;5.32;;;1.58;;
26540;SDS011;14206;50.202;10.948;2022-12-29T04:25:47;3.28;;;1.60;;
26540;SDS011;14206;50.202;10.948;2022-12-29T04:28:15;2.38;;;1.67;;
26540;SDS011;14206;50.202;10.948;2022-12-29T04:30:52;2.10;;;1.60;;
26540;SDS011;14206;50.202;10.948;2022-12-29T04:33:22;1.98;;;1.50;;
26540;SDS011;14206;50.202;10.948;2022-12-29T04:35:50;3.60;;;1.80;;
26540;SDS011;14206;50.202;10.948;2022-12-29T04:38:21;2.50;;;1.52;;
26540;SDS011;14206;50.202;10.948;2022-12-29T04:40:50;3.20;;;1.92;;
26540;SDS011;14206;50.202;10.948;2022-12-29T04:43:19;2.15;;;1.40;;
26540;SDS011;14206;50.202;10.948;2022-12-29T04:46:03;4.88;;;2.05;;
26540;SDS011;14206;50.202;10.948;2022-12-29T04:48:38;2.90;;;1.48;;
26540;SDS011;14206;50.202;10.948;2022-12-29T04:51:22;2.92;;;1.60;;
26540;SDS011;14206;50.202;10.948;2022-12-29T04:53:49;4.10;;;1.50;;
26540;SDS011;14206;50.202;10.948;2022-12-29T04:56:16;3.45;;;1.35;;
26540;SDS011;14206;50.202;10.948;2022-12-29T04:58:43;4.97;;;1.50;;
26540;SDS011;14206;50.202;10.948;2022-12-29T05:01:11;3.60;;;1.75;;
26540;SDS011;14206;50.202;10.948;2022-12-29T05:03:39;3.47;;;1.30;;
26540;SDS011;14206;50.202;10.948;2022-12-29T05:06:06;1.83;;;1.30;;
26540;SDS011;14206;50.202;10.948;2022-12-29T05:08:33;2.97;;;1.40;;
26540;SDS011;14206;50.202;10.948;2022-12-29T05:11:01;4.50;;;1.60;;
26540;SDS011;14206;50.202;10.948;2022-12-29T05:13:28;1.95;;;1.40;;
26540;SDS011;14206;50.202;10.948;2022-12-29T05:15:56;3.83;;;1.63;;
26540;SDS011;14206;50.202;10.948;2022-12-29T05:18:23;2.50;;;1.48;;
26540;SDS011;14206;50.202;10.948;2022-12-29T05:20:50;2.30;;;1.30;;
26540;SDS011;14206;50.202;10.948;2022-12-29T05:23:19;2.03;;;1.20;;
26540;SDS011;14206;50.202;10.948;2022-12-29T05:25:52;1.55;;;1.38;;
26540;SDS011;14206;50.202;10.948;2022-12-29T05:28:32;2.00;;;1.20;;
26540;SDS011;14206;50.202;10.948;2022-12-29T05:31:09;1.42;;;1.30;;
26540;SDS011;14206;50.202;10.948;2022-12-29T05:33:36;3.45;;;1.48;;
26540;SDS011;14206;50.202;10.948;2022-12-29T05:36:04;2.53;;;1.30;;
26540;SDS011;14206;50.202;10.948;2022-12-29T05:38:33;2.15;;;1.40;;
26540;SDS011;14206;50.202;10.948;2022-12-29T05:41:00;3.30;;;1.52;;
26540;SDS011;14206;50.202;10.948;2022-12-29T05:43:56;3.83;;;1.35;;
26540;SDS011;14206;50.202;10.948;2022-12-29T05:46:33;1.90;;;1.45;;
26540;SDS011;14206;50.202;10.948;2022-12-29T05:49:23;1.90;;;1.00;;
26540;SDS011;14206;50.202;10.948;2022-12-29T05:52:22;2.22;;;1.50;;
26540;SDS011;14206;50.202;10.948;2022-12-29T05:54:49;2.28;;;1.40;;
26540;SDS011;14206;50.202;10.948;2022-12-29T05:57:19;2.17;;;1.30;;
26540;SDS011;14206;50.202;10.948;2022-12-29T05:59:56;1.15;;;0.98;;
26540;SDS011;14206;50.202;10.948;2022-12-29T06:02:23;1.50;;;1.13;;
26540;SDS011;14206;50.202;10.948;2022-12-29T06:04:50;1.30;;;1.10;;
26540;SDS011;14206;50.202;10.948;2022-12-29T06:07:17;4.90;;;1.25;;
26540;SDS011;14206;50.202;10.948;2022-12-29T06:09:46;2.78;;;1.23;;
26540;SDS011;14206;50.202;10.948;2022-12-29T06:12:13;1.30;;;1.20;;
26540;SDS011;14206;50.202;10.948;2022-12-29T06:14:43;1.98;;;1.33;;
26540;SDS011;14206;50.202;10.948;2022-12-29T06:17:10;1.83;;;1.20;;
26540;SDS011;14206;50.202;10.948;2022-12-29T06:19:37;2.05;;;1.52;;
26540;SDS011;14206;50.202;10.948;2022-12-29T06:22:03;3.70;;;1.50;;
26540;SDS011;14206;50.202;10.948;2022-12-29T06:24:33;2.70;;;1.52;;
26540;SDS011;14206;50.202;10.948;2022-12-29T06:27:00;2.03;;;1.40;;
26540;SDS011;14206;50.202;10.948;2022-12-29T06:29:27;1.88;;;1.38;;
26540;SDS011;14206;50.202;10.948;2022-12-29T06:31:56;2.92;;;1.50;;
26540;SDS011;14206;50.202;10.948;2022-12-29T06:34:24;2.55;;;1.63;;
26540;SDS011;14206;50.202;10.948;2022-12-29T06:36:51;3.88;;;1.40;;
26540;SDS011;14206;50.202;10.948;2022-12-29T06:39:18;1.85;;;1.48;;
26540;SDS011;14206;50.202;10.948;2022-12-29T06:41:58;3.83;;;1.73;;
26540;SDS011;14206;50.202;10.948;2022-12-29T06:44:50;1.85;;;1.40;;
26540;SDS011;14206;50.202;10.948;2022-12-29T06:47:17;1.60;;;1.40;;
26540;SDS011;14206;50.202;10.948;2022-12-29T06:49:45;3.28;;;1.52;;
26540;SDS011;14206;50.202;10.948;2022-12-29T06:52:12;2.33;;;1.40;;
26540;SDS011;14206;50.202;10.948;2022-12-29T06:54:39;2.95;;;1.80;;
26540;SDS011;14206;50.202;10.948;2022-12-29T06:57:06;2.72;;;1.60;;
26540;SDS011;14206;50.202;10.948;2022-12-29T06:59:33;3.40;;;1.50;;
26540;SDS011;14206;50.202;10.948;2022-12-29T07:02:03;3.08;;;1.58;;
26540;SDS011;14206;50.202;10.948;2022-12-29T07:04:31;2.42;;;1.80;;
26540;SDS011;14206;50.202;10.948;2022-12-29T07:06:57;3.20;;;1.70;;
26540;SDS011;14206;50.202;10.948;2022-12-29T07:09:24;3.38;;;1.55;;
26540;SDS011;14206;50.202;10.948;2022-12-29T07:11:51;1.45;;;1.33;;
26540;SDS011;14206;50.202;10.948;2022-12-29T07:14:18;1.50;;;1.20;;
26540;SDS011;14206;50.202;10.948;2022-12-29T07:16:45;2.10;;;1.50;;
26540;SDS011;14206;50.202;10.948;2022-12-29T07:19:12;2.03;;;1.50;;
26540;SDS011;14206;50.202;10.948;2022-12-29T07:21:39;3.13;;;1.58;;
26540;SDS011;14206;50.202;10.948;2022-12-29T07:24:12;4.82;;;1.50;;
26540;SDS011;14206;50.202;10.948;2022-12-29T07:26:39;4.13;;;1.70;;
26540;SDS011;14206;50.202;10.948;2022-12-29T07:29:07;2.58;;;1.50;;
26540;SDS011;14206;50.202;10.948;2022-12-29T07:31:34;3.88;;;1.77;;
26540;SDS011;14206;50.202;10.948;2022-12-29T07:34:00;1.73;;;1.40;;
26540;SDS011;14206;50.202;10.948;2022-12-29T07:36:27;2.85;;;1.27;;
26540;SDS011;14206;50.202;10.948;2022-12-29T07:38:59;2.50;;;1.50;;
26540;SDS011;14206;50.202;10.948;2022-12-29T07:41:27;2.72;;;1.30;;
26540;SDS011;14206;50.202;10.948;2022-12-29T07:43:53;4.68;;;1.50;;
26540;SDS011;14206;50.202;10.948;2022-12-29T07:46:30;2.60;;;1.45;;
26540;SDS011;14206;50.202;10.948;2022-12-29T07:49:16;1.95;;;1.48;;
26540;SDS011;14206;50.202;10.948;2022-12-29T07:51:44;3.85;;;1.50;;
26540;SDS011;14206;50.202;10.948;2022-12-29T07:54:10;4.55;;;1.40;;
26540;SDS011;14206;50.202;10.948;2022-12-29T07:56:38;4.03;;;1.50;;
26540;SDS011;14206;50.202;10.948;2022-12-29T07:59:05;3.08;;;1.40;;
26540;SDS011;14206;50.202;10.948;2022-12-29T08:01:32;2.05;;;1.45;;
26540;SDS011;14206;50.202;10.948;2022-12-29T08:03:59;4.22;;;1.75;;
26540;SDS011;14206;50.202;10.948;2022-12-29T08:06:26;2.70;;;1.50;;
26540;SDS011;14206;50.202;10.948;2022-12-29T08:08:54;1.83;;;1.40;;
26540;SDS011;14206;50.202;10.948;2022-12-29T08:11:22;1.83;;;1.40;;
26540;SDS011;14206;50.202;10.948;2022-12-29T08:13:49;2.25;;;1.50;;
26540;SDS011;14206;50.202;10.948;2022-12-29T08:16:16;2.95;;;1.30;;
26540;SDS011;14206;50.202;10.948;2022-12-29T08:18:43;2.85;;;1.42;;
26540;SDS011;14206;50.202;10.948;2022-12-29T08:21:10;2.30;;;1.58;;
26540;SDS011;14206;50.202;10.948;2022-12-29T08:23:37;2.53;;;1.75;;
26540;SDS011;14206;50.202;10.948;2022-12-29T08:26:04;3.08;;;1.30;;
26540;SDS011;14206;50.202;10.948;2022-12-29T08:28:32;3.33;;;1.50;;
26540;SDS011;14206;50.202;10.948;2022-12-29T08:31:00;3.42;;;1.33;;
26540;SDS011;14206;50.202;10.948;2022-12-29T08:33:28;3.17;;;1.60;;
26540;SDS011;14206;50.202;10.948;2022-12-29T08:36:03;2.63;;;1.73;;
26540;SDS011;14206;50.202;10.948;2022-12-29T08:38:31;3.58;;;1.67;;
26540;SDS011;14206;50.202;10.948;2022-12-29T08:40:58;3.35;;;1.50;;
26540;SDS011;14206;50.202;10.948;2022-12-29T08:43:27;3.28;;;1.27;;
26540;SDS011;14206;50.202;10.948;2022-12-29T08:45:54;2.15;;;1.30;;
26540;SDS011;14206;50.202;10.948;2022-12-29T08:48:23;2.50;;;1.60;;
26540;SDS011;14206;50.202;10.948;2022-12-29T08:50:50;2.60;;;1.85;;
26540;SDS011;14206;50.202;10.948;2022-12-29T08:53:17;3.45;;;1.40;;
26540;SDS011;14206;50.202;10.948;2022-12-29T08:55:45;2.85;;;1.35;;
26540;SDS011;14206;50.202;10.948;2022-12-29T08:58:13;3.83;;;1.42;;
26540;SDS011;14206;50.202;10.948;2022-12-29T09:00:43;2.80;;;1.35;;
26540;SDS011;14206;50.202;10.948;2022-12-29T09:03:11;1.45;;;1.20;;
26540;SDS011;14206;50.202;10.948;2022-12-29T09:05:38;2.45;;;1.63;;
26540;SDS011;14206;50.202;10.948;2022-12-29T09:08:04;2.85;;;1.50;;
26540;SDS011;14206;50.202;10.948;2022-12-29T09:10:34;3.55;;;1.65;;
26540;SDS011;14206;50.202;10.948;2022-12-29T09:13:01;1.48;;;1.20;;
26540;SDS011;14206;50.202;10.948;2022-12-29T09:15:28;2.30;;;1.40;;
26540;SDS011;14206;50.202;10.948;2022-12-29T09:17:55;1.95;;;1.40;;
26540;SDS011;14206;50.202;10.948;2022-12-29T09:20:22;1.77;;;1.35;;
26540;SDS011;14206;50.202;10.948;2022-12-29T09:22:48;2.30;;;1.50;;
26540;SDS011;14206;50.202;10.948;2022-12-29T09:25:16;1.60;;;1.38;;
26540;SDS011;14206;50.202;10.948;2022-12-29T09:27:43;3.03;;;1.55;;
26540;SDS011;14206;50.202;10.948;2022-12-29T09:30:10;1.90;;;1.27;;
26540;SDS011;14206;50.202;10.948;2022-12-29T09:32:38;1.88;;;1.35;;
26540;SDS011;14206;50.202;10.948;2022-12-29T09:35:11;4.43;;;1.65;;
26540;SDS011;14206;50.202;10.948;2022-12-29T09:37:38;1.98;;;1.33;;
26540;SDS011;14206;50.202;10.948;2022-12-29T09:40:05;1.70;;;1.33;;
26540;SDS011;14206;50.202;10.948;2022-12-29T09:42:38;2.38;;;1.65;;
26540;SDS011;14206;50.202;10.948;2022-12-29T09:45:13;3.08;;;1.50;;
26540;SDS011;14206;50.202;10.948;2022-12-29T09:47:51;1.50;;;1.40;;
26540;SDS011;14206;50.202;10.948;2022-12-29T09:50:32;3.25;;;1.40;;
26540;SDS011;14206;50.202;10.948;2022-12-29T09:53:10;3.13;;;1.50;;
26540;SDS011;14206;50.202;10.948;2022-12-29T09:55:48;4.45;;;1.40;;
26540;SDS011;14206;50.202;10.948;2022-12-29T09:58:37;2.88;;;1.40;;
26540;SDS011;14206;50.202;10.948;2022-12-29T10:03:58;2.53;;;1.55;;
26540;SDS011;14206;50.202;10.948;2022-12-29T10:06:32;3.85;;;1.63;;
26540;SDS011;14206;50.202;10.948;2022-12-29T10:15:04;2.90;;;1.60;;
26540;SDS011;14206;50.202;10.948;2022-12-29T10:23:22;2.33;;;1.40;;
26540;SDS011;14206;50.202;10.948;2022-12-29T10:25:55;2.72;;;1.63;;
26540;SDS011;14206;50.202;10.948;2022-12-29T10:31:03;2.53;;;1.73;;
26540;SDS011;14206;50.202;10.948;2022-12-29T10:33:36;2.95;;;1.40;;
26540;SDS011;14206;50.202;10.948;2022-12-29T10:36:17;1.58;;;1.30;;
26540;SDS011;14206;50.202;10.948;2022-12-29T10:39:04;4.03;;;1.67;;
26540;SDS011;14206;50.202;10.948;2022-12-29T10:41:41;2.00;;;1.50;;
26540;SDS011;14206;50.202;10.948;2022-12-29T10:44:15;2.27;;;1.50;;
26540;SDS011;14206;50.202;10.948;2022-12-29T10:46:44;3.28;;;1.60;;
26540;SDS011;14206;50.202;10.948;2022-12-29T10:49:18;2.53;;;1.50;;
26540;SDS011;14206;50.202;10.948;2022-12-29T10:51:48;4.07;;;1.60;;
26540;SDS011;14206;50.202;10.948;2022-12-29T10:54:23;2.97;;;1.65;;
26540;SDS011;14206;50.202;10.948;2022-12-29T10:59:25;1.90;;;1.70;;
26540;SDS011;14206;50.202;10.948;2022-12-29T11:01:58;3.75;;;1.85;;
26540;SDS011;14206;50.202;10.948;2022-12-29T11:04:52;2.58;;;1.55;;
26540;SDS011;14206;50.202;10.948;2022-12-29T11:07:29;4.72;;;1.58;;
26540;SDS011;14206;50.202;10.948;2022-12-29T11:10:19;3.20;;;1.88;;
26540;SDS011;14206;50.202;10.948;2022-12-29T11:13:04;2.58;;;1.50;;
26540;SDS011;14206;50.202;10.948;2022-12-29T11:15:46;2.58;;;1.80;;
26540;SDS011;14206;50.202;10.948;2022-12-29T11:18:35;2.85;;;1.60;;
26540;SDS011;14206;50.202;10.948;2022-12-29T11:21:19;2.78;;;1.58;;
26540;SDS011;14206;50.202;10.948;2022-12-29T11:24:03;2.67;;;1.58;;
26540;SDS011;14206;50.202;10.948;2022-12-29T11:26:31;3.38;;;1.95;;
26540;SDS011;14206;50.202;10.948;2022-12-29T11:31:43;3.15;;;1.65;;
26540;SDS011;14206;50.202;10.948;2022-12-29T11:34:25;2.10;;;1.50;;
26540;SDS011;14206;50.202;10.948;2022-12-29T11:37:03;2.22;;;1.33;;
26540;SDS011;14206;50.202;10.948;2022-12-29T11:42:22;3.17;;;1.50;;
26540;SDS011;14206;50.202;10.948;2022-12-29T11:45:23;3.13;;;1.60;;
26540;SDS011;14206;50.202;10.948;2022-12-29T11:47:56;3.03;;;1.65;;
26540;SDS011;14206;50.202;10.948;2022-12-29T11:50:33;2.25;;;1.58;;
26540;SDS011;14206;50.202;10.948;2022-12-29T11:53:05;2.85;;;1.83;;
26540;SDS011;14206;50.202;10.948;2022-12-29T11:55:51;2.17;;;1.52;;
26540;SDS011;14206;50.202;10.948;2022-12-29T11:58:28;4.97;;;2.10;;
26540;SDS011;14206;50.202;10.948;2022-12-29T12:01:00;2.65;;;1.80;;
26540;SDS011;14206;50.202;10.948;2022-12-29T12:03:52;2.90;;;1.90;;
26540;SDS011;14206;50.202;10.948;2022-12-29T12:06:44;4.10;;;2.17;;
26540;SDS011;14206;50.202;10.948;2022-12-29T12:09:47;5.68;;;2.00;;
26540;SDS011;14206;50.202;10.948;2022-12-29T12:12:35;2.60;;;1.70;;
26540;SDS011;14206;50.202;10.948;2022-12-29T12:15:34;3.28;;;1.88;;
26540;SDS011;14206;50.202;10.948;2022-12-29T12:23:28;3.30;;;1.85;;
26540;SDS011;14206;50.202;10.948;2022-12-29T12:26:18;4.93;;;1.83;;
26540;SDS011;14206;50.202;10.948;2022-12-29T12:28:55;2.95;;;1.70;;
26540;SDS011;14206;50.202;10.948;2022-12-29T12:31:45;2.75;;;2.08;;
26540;SDS011;14206;50.202;10.948;2022-12-29T12:34:23;3.63;;;1.95;;
26540;SDS011;14206;50.202;10.948;2022-12-29T12:37:02;2.92;;;1.95;;
26540;SDS011;14206;50.202;10.948;2022-12-29T12:42:09;4.20;;;1.90;;
26540;SDS011;14206;50.202;10.948;2022-12-29T12:47:50;2.55;;;1.60;;
26540;SDS011;14206;50.202;10.948;2022-12-29T12:55:39;1.40;;;1.27;;
26540;SDS011;14206;50.202;10.948;2022-12-29T13:03:47;1.17;;;0.80;;
26540;SDS011;14206;50.202;10.948;2022-12-29T13:09:00;1.58;;;0.90;;
26540;SDS011;14206;50.202;10.948;2022-12-29T13:17:30;0.70;;;0.70;;
26540;SDS011;14206;50.202;10.948;2022-12-29T13:20:07;0.65;;;0.50;;
26540;SDS011;14206;50.202;10.948;2022-12-29T13:22:39;0.90;;;0.80;;
26540;SDS011;14206;50.202;10.948;2022-12-29T13:31:07;1.00;;;0.80;;
26540;SDS011;14206;50.202;10.948;2022-12-29T13:33:40;0.70;;;0.70;;
26540;SDS011;14206;50.202;10.948;2022-12-29T13:36:41;0.82;;;0.68;;
26540;SDS011;14206;50.202;10.948;2022-12-29T13:39:19;0.50;;;0.50;;
26540;SDS011;14206;50.202;10.948;2022-12-29T13:41:51;0.50;;;0.50;;
26540;SDS011;14206;50.202;10.948;2022-12-29T13:47:29;0.93;;;0.63;;
26540;SDS011;14206;50.202;10.948;2022-12-29T13:50:01;0.73;;;0.73;;
26540;SDS011;14206;50.202;10.948;2022-12-29T13:52:35;0.52;;;0.47;;
26540;SDS011;14206;50.202;10.948;2022-12-29T14:00:52;0.50;;;0.50;;
26540;SDS011;14206;50.202;10.948;2022-12-29T14:04:09;1.30;;;0.60;;
26540;SDS011;14206;50.202;10.948;2022-12-29T14:06:30;0.60;;;0.60;;
26540;SDS011;14206;50.202;10.948;2022-12-29T14:09:00;0.55;;;0.50;;
26540;SDS011;14206;50.202;10.948;2022-12-29T14:11:31;0.70;;;0.70;;
26540;SDS011;14206;50.202;10.948;2022-12-29T14:14:12;0.50;;;0.50;;
26540;SDS011;14206;50.202;10.948;2022-12-29T14:16:51;2.08;;;0.90;;
26540;SDS011;14206;50.202;10.948;2022-12-29T14:19:38;0.80;;;0.63;;
26540;SDS011;14206;50.202;10.948;2022-12-29T14:22:08;0.50;;;0.50;;
26540;SDS011;14206;50.202;10.948;2022-12-29T14:24:40;0.70;;;0.60;;
26540;SDS011;14206;50.202;10.948;2022-12-29T14:34:53;0.98;;;0.77;;
26540;SDS011;14206;50.202;10.948;2022-12-29T14:37:31;1.52;;;0.88;;
26540;SDS011;14206;50.202;10.948;2022-12-29T14:42:53;1.05;;;0.60;;
26540;SDS011;14206;50.202;10.948;2022-12-29T14:45:26;0.60;;;0.60;;
26540;SDS011;14206;50.202;10.948;2022-12-29T14:47:56;1.00;;;0.67;;
26540;SDS011;14206;50.202;10.948;2022-12-29T14:50:24;0.70;;;0.60;;
26540;SDS011;14206;50.202;10.948;2022-12-29T14:53:40;1.05;;;0.82;;
26540;SDS011;14206;50.202;10.948;2022-12-29T14:56:15;0.93;;;0.70;;
26540;SDS011;14206;50.202;10.948;2022-12-29T14:58:54;1.50;;;0.82;;
26540;SDS011;14206;50.202;10.948;2022-12-29T15:04:17;0.80;;;0.70;;
26540;SDS011;14206;50.202;10.948;2022-12-29T15:06:47;1.73;;;0.70;;
26540;SDS011;14206;50.202;10.948;2022-12-29T15:09:19;1.13;;;0.73;;
26540;SDS011;14206;50.202;10.948;2022-12-29T15:12:22;1.88;;;0.68;;
26540;SDS011;14206;50.202;10.948;2022-12-29T15:15:01;1.55;;;0.90;;
26540;SDS011;14206;50.202;10.948;2022-12-29T15:17:43;0.70;;;0.70;;
26540;SDS011;14206;50.202;10.948;2022-12-29T15:20:26;2.03;;;1.00;;
26540;SDS011;14206;50.202;10.948;2022-12-29T15:23:00;1.20;;;0.98;;
26540;SDS011;14206;50.202;10.948;2022-12-29T15:25:30;1.80;;;1.08;;
26540;SDS011;14206;50.202;10.948;2022-12-29T15:28:00;1.33;;;1.00;;
26540;SDS011;14206;50.202;10.948;2022-12-29T15:30:28;1.80;;;1.20;;
26540;SDS011;14206;50.202;10.948;2022-12-29T15:32:55;1.50;;;1.20;;
26540;SDS011;14206;50.202;10.948;2022-12-29T15:38:01;0.85;;;0.77;;
26540;SDS011;14206;50.202;10.948;2022-12-29T15:40:43;1.23;;;0.88;;
26540;SDS011;14206;50.202;10.948;2022-12-29T15:46:12;1.10;;;0.80;;
26540;SDS011;14206;50.202;10.948;2022-12-29T15:48:40;0.95;;;0.85;;
26540;SDS011;14206;50.202;10.948;2022-12-29T15:53:57;0.82;;;0.82;;
26540;SDS011;14206;50.202;10.948;2022-12-29T15:56:24;1.50;;;0.82;;
26540;SDS011;14206;50.202;10.948;2022-12-29T15:58:57;1.05;;;0.80;;
26540;SDS011;14206;50.202;10.948;2022-12-29T16:04:00;1.10;;;1.00;;
26540;SDS011;14206;50.202;10.948;2022-12-29T16:06:32;0.80;;;0.80;;
26540;SDS011;14206;50.202;10.948;2022-12-29T16:09:17;1.25;;;1.08;;
26540;SDS011;14206;50.202;10.948;2022-12-29T16:11:47;1.23;;;1.00;;
26540;SDS011;14206;50.202;10.948;2022-12-29T16:14:20;1.15;;;0.95;;
26540;SDS011;14206;50.202;10.948;2022-12-29T16:16:53;0.75;;;0.75;;
26540;SDS011;14206;50.202;10.948;2022-12-29T16:19:27;0.80;;;0.80;;
26540;SDS011;14206;50.202;10.948;2022-12-29T16:21:56;1.10;;;0.98;;
26540;SDS011;14206;50.202;10.948;2022-12-29T16:24:25;1.27;;;1.10;;
26540;SDS011;14206;50.202;10.948;2022-12-29T16:26:58;2.65;;;1.60;;
26540;SDS011;14206;50.202;10.948;2022-12-29T16:29:26;1.95;;;1.30;;
26540;SDS011;14206;50.202;10.948;2022-12-29T16:31:57;3.72;;;1.70;;
26540;SDS011;14206;50.202;10.948;2022-12-29T16:37:19;1.63;;;1.20;;
26540;SDS011;14206;50.202;10.948;2022-12-29T16:39:55;2.13;;;1.20;;
26540;SDS011;14206;50.202;10.948;2022-12-29T16:47:47;2.38;;;0.98;;
26540;SDS011;14206;50.202;10.948;2022-12-29T16:50:35;1.40;;;0.80;;
26540;SDS011;14206;50.202;10.948;2022-12-29T16:53:04;0.85;;;0.82;;
26540;SDS011;14206;50.202;10.948;2022-12-29T16:55:49;1.45;;;0.82;;
26540;SDS011;14206;50.202;10.948;2022-12-29T16:58:21;1.23;;;0.75;;
26540;SDS011;14206;50.202;10.948;2022-12-29T17:00:52;2.15;;;0.80;;
26540;SDS011;14206;50.202;10.948;2022-12-29T17:03:48;1.00;;;0.90;;
26540;SDS011;14206;50.202;10.948;2022-12-29T17:06:16;2.65;;;1.08;;
26540;SDS011;14206;50.202;10.948;2022-12-29T17:08:45;2.25;;;0.88;;
26540;SDS011;14206;50.202;10.948;2022-12-29T17:11:19;1.27;;;0.85;;
26540;SDS011;14206;50.202;10.948;2022-12-29T17:14:13;2.88;;;1.30;;
26540;SDS011;14206;50.202;10.948;2022-12-29T17:19:23;1.25;;;0.82;;
26540;SDS011;14206;50.202;10.948;2022-12-29T17:24:22;2.75;;;1.00;;
26540;SDS011;14206;50.202;10.948;2022-12-29T17:26:50;0.93;;;0.80;;
26540;SDS011;14206;50.202;10.948;2022-12-29T17:31:52;1.83;;;0.90;;
26540;SDS011;14206;50.202;10.948;2022-12-29T17:34:19;1.60;;;1.00;;